sensor_id;sensor_type;location;lat;lon;timestamp;P1;durP1;ratioP1;P2;durP2;ratioP2
64832;SDS011;51290;45.060;38.948;2023-07-13T00:01:58;10.30;;;5.78;;
64832;SDS011;51290;45.060;38.948;2023-07-13T00:04:24;7.70;;;4.65;;
64832;SDS011;51290;45.060;38.948;2023-07-13T00:06:51;13.43;;;4.43;;
64832;SDS011;51290;45.060;38.948;2023-07-13T00:09:18;5.20;;;3.90;;
64832;SDS011;51290;45.060;38.948;2023-07-13T00:11:45;5.57;;;4.05;;
64832;SDS011;51290;45.060;38.948;2023-07-13T00:14:14;5.38;;;3.70;;
64832;SDS011;51290;45.060;38.948;2023-07-13T00:16:41;4.90;;;3.75;;
64832;SDS011;51290;45.060;38.948;2023-07-13T00:19:09;6.13;;;3.85;;
64832;SDS011;51290;45.060;38.948;2023-07-13T00:21:37;6.43;;;3.97;;
64832;SDS011;51290;45.060;38.948;2023-07-13T00:24:05;10.13;;;3.58;;
64832;SDS011;51290;45.060;38.948;2023-07-13T00:26:32;5.35;;;3.30;;
64832;SDS011;51290;45.060;38.948;2023-07-13T00:28:59;6.60;;;3.63;;
64832;SDS011;51290;45.060;38.948;2023-07-13T00:31:25;5.20;;;3.42;;
64832;SDS011;51290;45.060;38.948;2023-07-13T00:33:55;6.72;;;3.63;;
64832;SDS011;51290;45.060;38.948;2023-07-13T00:36:21;4.97;;;3.47;;
64832;SDS011;51290;45.060;38.948;2023-07-13T00:38:47;7.97;;;4.28;;
64832;SDS011;51290;45.060;38.948;2023-07-13T00:41:14;12.02;;;3.70;;
64832;SDS011;51290;45.060;38.948;2023-07-13T00:43:40;9.45;;;3.95;;
64832;SDS011;51290;45.060;38.948;2023-07-13T00:46:14;6.45;;;3.50;;
64832;SDS011;51290;45.060;38.948;2023-07-13T00:48:52;6.45;;;3.88;;
64832;SDS011;51290;45.060;38.948;2023-07-13T00:51:43;5.00;;;3.70;;
64832;SDS011;51290;45.060;38.948;2023-07-13T00:54:13;9.25;;;3.67;;
64832;SDS011;51290;45.060;38.948;2023-07-13T00:56:45;4.00;;;3.13;;
64832;SDS011;51290;45.060;38.948;2023-07-13T00:59:14;7.82;;;3.58;;
64832;SDS011;51290;45.060;38.948;2023-07-13T01:01:42;5.80;;;3.92;;
64832;SDS011;51290;45.060;38.948;2023-07-13T01:04:09;5.85;;;3.60;;
64832;SDS011;51290;45.060;38.948;2023-07-13T01:06:36;7.53;;;4.03;;
64832;SDS011;51290;45.060;38.948;2023-07-13T01:09:03;5.65;;;3.75;;
64832;SDS011;51290;45.060;38.948;2023-07-13T01:11:31;8.55;;;3.47;;
64832;SDS011;51290;45.060;38.948;2023-07-13T01:13:57;6.80;;;3.78;;
64832;SDS011;51290;45.060;38.948;2023-07-13T01:16:25;4.35;;;3.20;;
64832;SDS011;51290;45.060;38.948;2023-07-13T01:18:55;4.85;;;3.72;;
64832;SDS011;51290;45.060;38.948;2023-07-13T01:21:25;9.20;;;4.25;;
64832;SDS011;51290;45.060;38.948;2023-07-13T01:23:52;6.65;;;4.05;;
64832;SDS011;51290;45.060;38.948;2023-07-13T01:26:20;8.93;;;3.75;;
64832;SDS011;51290;45.060;38.948;2023-07-13T01:28:46;7.15;;;3.72;;
64832;SDS011;51290;45.060;38.948;2023-07-13T01:31:13;7.13;;;3.88;;
64832;SDS011;51290;45.060;38.948;2023-07-13T01:33:39;5.95;;;3.90;;
64832;SDS011;51290;45.060;38.948;2023-07-13T01:36:07;6.70;;;4.25;;
64832;SDS011;51290;45.060;38.948;2023-07-13T01:38:36;6.10;;;4.10;;
64832;SDS011;51290;45.060;38.948;2023-07-13T01:41:02;7.75;;;4.68;;
64832;SDS011;51290;45.060;38.948;2023-07-13T01:43:29;4.65;;;3.60;;
64832;SDS011;51290;45.060;38.948;2023-07-13T01:45:55;7.30;;;3.85;;
64832;SDS011;51290;45.060;38.948;2023-07-13T01:48:21;6.85;;;3.88;;
64832;SDS011;51290;45.060;38.948;2023-07-13T01:50:48;7.30;;;4.03;;
64832;SDS011;51290;45.060;38.948;2023-07-13T01:53:14;5.35;;;3.83;;
64832;SDS011;51290;45.060;38.948;2023-07-13T01:55:41;9.77;;;4.18;;
64832;SDS011;51290;45.060;38.948;2023-07-13T01:58:08;5.25;;;4.03;;
64832;SDS011;51290;45.060;38.948;2023-07-13T02:00:34;7.50;;;3.90;;
64832;SDS011;51290;45.060;38.948;2023-07-13T02:03:01;8.25;;;4.03;;
64832;SDS011;51290;45.060;38.948;2023-07-13T02:05:34;7.40;;;4.38;;
64832;SDS011;51290;45.060;38.948;2023-07-13T02:08:01;6.80;;;3.90;;
64832;SDS011;51290;45.060;38.948;2023-07-13T02:10:30;5.13;;;3.47;;
64832;SDS011;51290;45.060;38.948;2023-07-13T02:12:56;7.55;;;4.03;;
64832;SDS011;51290;45.060;38.948;2023-07-13T02:15:22;8.85;;;4.32;;
64832;SDS011;51290;45.060;38.948;2023-07-13T02:17:48;5.40;;;3.90;;
64832;SDS011;51290;45.060;38.948;2023-07-13T02:20:17;7.68;;;4.57;;
64832;SDS011;51290;45.060;38.948;2023-07-13T02:22:43;6.18;;;3.85;;
64832;SDS011;51290;45.060;38.948;2023-07-13T02:25:09;7.82;;;4.32;;
64832;SDS011;51290;45.060;38.948;2023-07-13T02:27:35;12.65;;;4.38;;
64832;SDS011;51290;45.060;38.948;2023-07-13T02:30:01;5.80;;;4.25;;
64832;SDS011;51290;45.060;38.948;2023-07-13T02:32:28;6.13;;;3.95;;
64832;SDS011;51290;45.060;38.948;2023-07-13T02:34:54;9.23;;;4.20;;
64832;SDS011;51290;45.060;38.948;2023-07-13T02:37:21;10.50;;;4.75;;
64832;SDS011;51290;45.060;38.948;2023-07-13T02:39:47;8.20;;;4.28;;
64832;SDS011;51290;45.060;38.948;2023-07-13T02:42:13;11.57;;;4.40;;
64832;SDS011;51290;45.060;38.948;2023-07-13T02:44:39;5.07;;;3.90;;
64832;SDS011;51290;45.060;38.948;2023-07-13T02:47:05;6.15;;;4.13;;
64832;SDS011;51290;45.060;38.948;2023-07-13T02:49:32;8.02;;;4.50;;
64832;SDS011;51290;45.060;38.948;2023-07-13T02:51:58;9.00;;;4.20;;
64832;SDS011;51290;45.060;38.948;2023-07-13T02:54:24;4.75;;;3.67;;
64832;SDS011;51290;45.060;38.948;2023-07-13T02:56:50;4.68;;;3.85;;
64832;SDS011;51290;45.060;38.948;2023-07-13T02:59:16;11.23;;;4.35;;
64832;SDS011;51290;45.060;38.948;2023-07-13T03:01:42;6.30;;;4.05;;
64832;SDS011;51290;45.060;38.948;2023-07-13T03:04:09;15.85;;;4.15;;
64832;SDS011;51290;45.060;38.948;2023-07-13T03:06:36;11.73;;;4.15;;
64832;SDS011;51290;45.060;38.948;2023-07-13T03:09:03;9.88;;;3.83;;
64832;SDS011;51290;45.060;38.948;2023-07-13T03:11:31;4.70;;;3.80;;
64832;SDS011;51290;45.060;38.948;2023-07-13T03:14:32;7.85;;;4.20;;
64832;SDS011;51290;45.060;38.948;2023-07-13T03:17:00;5.90;;;3.70;;
64832;SDS011;51290;45.060;38.948;2023-07-13T03:19:30;8.27;;;4.50;;
64832;SDS011;51290;45.060;38.948;2023-07-13T03:21:56;8.45;;;4.30;;
64832;SDS011;51290;45.060;38.948;2023-07-13T03:24:23;8.45;;;4.60;;
64832;SDS011;51290;45.060;38.948;2023-07-13T03:26:51;6.72;;;4.32;;
64832;SDS011;51290;45.060;38.948;2023-07-13T03:29:18;9.20;;;4.78;;
64832;SDS011;51290;45.060;38.948;2023-07-13T03:31:45;7.78;;;4.63;;
64832;SDS011;51290;45.060;38.948;2023-07-13T03:34:11;9.23;;;4.22;;
64832;SDS011;51290;45.060;38.948;2023-07-13T03:36:37;7.88;;;4.50;;
64832;SDS011;51290;45.060;38.948;2023-07-13T03:39:08;6.65;;;4.72;;
64832;SDS011;51290;45.060;38.948;2023-07-13T03:41:50;9.38;;;4.40;;
64832;SDS011;51290;45.060;38.948;2023-07-13T03:44:17;10.18;;;4.93;;
64832;SDS011;51290;45.060;38.948;2023-07-13T03:46:44;6.93;;;4.57;;
64832;SDS011;51290;45.060;38.948;2023-07-13T03:49:10;6.80;;;4.40;;
64832;SDS011;51290;45.060;38.948;2023-07-13T03:51:37;9.82;;;4.45;;
64832;SDS011;51290;45.060;38.948;2023-07-13T03:54:04;6.40;;;3.97;;
64832;SDS011;51290;45.060;38.948;2023-07-13T03:56:31;6.20;;;3.80;;
64832;SDS011;51290;45.060;38.948;2023-07-13T03:59:02;13.65;;;4.82;;
64832;SDS011;51290;45.060;38.948;2023-07-13T04:01:29;9.63;;;4.63;;
64832;SDS011;51290;45.060;38.948;2023-07-13T04:03:55;7.88;;;4.53;;
64832;SDS011;51290;45.060;38.948;2023-07-13T04:06:26;8.70;;;4.03;;
64832;SDS011;51290;45.060;38.948;2023-07-13T04:08:56;9.65;;;4.30;;
64832;SDS011;51290;45.060;38.948;2023-07-13T04:11:24;9.10;;;4.57;;
64832;SDS011;51290;45.060;38.948;2023-07-13T04:13:53;11.00;;;4.85;;
64832;SDS011;51290;45.060;38.948;2023-07-13T04:16:20;7.38;;;4.40;;
64832;SDS011;51290;45.060;38.948;2023-07-13T04:18:47;9.35;;;4.30;;
64832;SDS011;51290;45.060;38.948;2023-07-13T04:21:14;5.80;;;4.40;;
64832;SDS011;51290;45.060;38.948;2023-07-13T04:23:41;9.52;;;5.05;;
64832;SDS011;51290;45.060;38.948;2023-07-13T04:26:07;8.85;;;5.05;;
64832;SDS011;51290;45.060;38.948;2023-07-13T04:28:33;8.05;;;5.00;;
64832;SDS011;51290;45.060;38.948;2023-07-13T04:31:00;6.97;;;4.20;;
64832;SDS011;51290;45.060;38.948;2023-07-13T04:33:26;7.30;;;4.53;;
64832;SDS011;51290;45.060;38.948;2023-07-13T04:35:53;7.22;;;4.70;;
64832;SDS011;51290;45.060;38.948;2023-07-13T04:38:22;11.38;;;4.72;;
64832;SDS011;51290;45.060;38.948;2023-07-13T04:40:50;6.20;;;4.38;;
64832;SDS011;51290;45.060;38.948;2023-07-13T04:43:17;8.25;;;4.40;;
64832;SDS011;51290;45.060;38.948;2023-07-13T04:45:45;9.27;;;4.40;;
64832;SDS011;51290;45.060;38.948;2023-07-13T04:48:11;8.38;;;4.93;;
64832;SDS011;51290;45.060;38.948;2023-07-13T04:50:37;6.90;;;4.35;;
64832;SDS011;51290;45.060;38.948;2023-07-13T04:53:04;7.70;;;5.45;;
64832;SDS011;51290;45.060;38.948;2023-07-13T04:55:31;7.53;;;5.20;;
64832;SDS011;51290;45.060;38.948;2023-07-13T04:57:57;7.75;;;4.68;;
64832;SDS011;51290;45.060;38.948;2023-07-13T05:00:24;13.60;;;4.35;;
64832;SDS011;51290;45.060;38.948;2023-07-13T05:02:51;8.05;;;4.53;;
64832;SDS011;51290;45.060;38.948;2023-07-13T05:05:17;7.20;;;5.00;;
64832;SDS011;51290;45.060;38.948;2023-07-13T05:07:43;7.78;;;4.88;;
64832;SDS011;51290;45.060;38.948;2023-07-13T05:10:09;8.13;;;4.70;;
64832;SDS011;51290;45.060;38.948;2023-07-13T05:12:36;7.20;;;5.05;;
64832;SDS011;51290;45.060;38.948;2023-07-13T05:15:02;7.28;;;4.63;;
64832;SDS011;51290;45.060;38.948;2023-07-13T05:17:29;8.07;;;4.60;;
64832;SDS011;51290;45.060;38.948;2023-07-13T05:19:55;9.38;;;4.57;;
64832;SDS011;51290;45.060;38.948;2023-07-13T05:22:21;7.05;;;5.00;;
64832;SDS011;51290;45.060;38.948;2023-07-13T05:24:47;8.63;;;4.93;;
64832;SDS011;51290;45.060;38.948;2023-07-13T05:27:13;8.23;;;5.13;;
64832;SDS011;51290;45.060;38.948;2023-07-13T05:29:39;7.38;;;4.75;;
64832;SDS011;51290;45.060;38.948;2023-07-13T05:32:05;7.47;;;5.35;;
64832;SDS011;51290;45.060;38.948;2023-07-13T05:34:32;7.80;;;4.55;;
64832;SDS011;51290;45.060;38.948;2023-07-13T05:36:58;5.78;;;4.40;;
64832;SDS011;51290;45.060;38.948;2023-07-13T05:39:24;12.98;;;4.60;;
64832;SDS011;51290;45.060;38.948;2023-07-13T05:41:51;10.95;;;4.72;;
64832;SDS011;51290;45.060;38.948;2023-07-13T05:44:17;9.60;;;4.78;;
64832;SDS011;51290;45.060;38.948;2023-07-13T05:46:44;8.70;;;4.75;;
64832;SDS011;51290;45.060;38.948;2023-07-13T05:49:11;7.60;;;4.82;;
64832;SDS011;51290;45.060;38.948;2023-07-13T05:51:37;7.82;;;4.90;;
64832;SDS011;51290;45.060;38.948;2023-07-13T05:54:03;6.93;;;4.93;;
64832;SDS011;51290;45.060;38.948;2023-07-13T05:56:29;6.95;;;4.57;;
64832;SDS011;51290;45.060;38.948;2023-07-13T05:58:56;11.10;;;4.72;;
64832;SDS011;51290;45.060;38.948;2023-07-13T06:01:22;8.43;;;4.97;;
64832;SDS011;51290;45.060;38.948;2023-07-13T06:03:49;8.55;;;4.88;;
64832;SDS011;51290;45.060;38.948;2023-07-13T06:06:15;7.57;;;5.50;;
64832;SDS011;51290;45.060;38.948;2023-07-13T06:08:42;6.45;;;4.97;;
64832;SDS011;51290;45.060;38.948;2023-07-13T06:11:12;26.58;;;6.07;;
64832;SDS011;51290;45.060;38.948;2023-07-13T06:13:39;6.82;;;5.30;;
64832;SDS011;51290;45.060;38.948;2023-07-13T06:16:05;7.18;;;4.70;;
64832;SDS011;51290;45.060;38.948;2023-07-13T06:18:33;8.60;;;5.63;;
64832;SDS011;51290;45.060;38.948;2023-07-13T06:21:00;7.53;;;5.30;;
64832;SDS011;51290;45.060;38.948;2023-07-13T06:23:31;7.40;;;5.22;;
64832;SDS011;51290;45.060;38.948;2023-07-13T06:25:57;7.32;;;5.15;;
64832;SDS011;51290;45.060;38.948;2023-07-13T06:28:23;6.85;;;4.85;;
64832;SDS011;51290;45.060;38.948;2023-07-13T06:30:49;10.57;;;5.10;;
64832;SDS011;51290;45.060;38.948;2023-07-13T06:33:15;8.82;;;5.47;;
64832;SDS011;51290;45.060;38.948;2023-07-13T06:35:42;9.23;;;5.47;;
64832;SDS011;51290;45.060;38.948;2023-07-13T06:38:08;12.77;;;5.32;;
64832;SDS011;51290;45.060;38.948;2023-07-13T06:40:34;6.05;;;4.90;;
64832;SDS011;51290;45.060;38.948;2023-07-13T06:43:00;7.13;;;4.78;;
64832;SDS011;51290;45.060;38.948;2023-07-13T06:45:26;7.55;;;5.43;;
64832;SDS011;51290;45.060;38.948;2023-07-13T06:47:52;8.07;;;5.18;;
64832;SDS011;51290;45.060;38.948;2023-07-13T06:50:18;8.82;;;5.32;;
64832;SDS011;51290;45.060;38.948;2023-07-13T06:52:44;7.60;;;5.35;;
64832;SDS011;51290;45.060;38.948;2023-07-13T06:55:11;8.98;;;5.05;;
64832;SDS011;51290;45.060;38.948;2023-07-13T06:57:37;6.00;;;4.90;;
64832;SDS011;51290;45.060;38.948;2023-07-13T07:00:03;8.70;;;5.10;;
64832;SDS011;51290;45.060;38.948;2023-07-13T07:02:32;16.38;;;5.10;;
64832;SDS011;51290;45.060;38.948;2023-07-13T07:04:58;8.45;;;5.85;;
64832;SDS011;51290;45.060;38.948;2023-07-13T07:07:24;7.50;;;5.68;;
64832;SDS011;51290;45.060;38.948;2023-07-13T07:09:50;9.95;;;6.13;;
64832;SDS011;51290;45.060;38.948;2023-07-13T07:12:16;6.60;;;5.25;;
64832;SDS011;51290;45.060;38.948;2023-07-13T07:14:42;10.00;;;5.63;;
64832;SDS011;51290;45.060;38.948;2023-07-13T07:17:08;10.38;;;6.22;;
64832;SDS011;51290;45.060;38.948;2023-07-13T07:19:35;8.40;;;5.00;;
64832;SDS011;51290;45.060;38.948;2023-07-13T07:22:01;9.57;;;5.28;;
64832;SDS011;51290;45.060;38.948;2023-07-13T07:24:27;6.60;;;4.82;;
64832;SDS011;51290;45.060;38.948;2023-07-13T07:26:53;7.38;;;4.93;;
64832;SDS011;51290;45.060;38.948;2023-07-13T07:29:19;14.00;;;7.13;;
64832;SDS011;51290;45.060;38.948;2023-07-13T07:31:46;7.30;;;4.80;;
64832;SDS011;51290;45.060;38.948;2023-07-13T07:34:12;10.25;;;7.30;;
64832;SDS011;51290;45.060;38.948;2023-07-13T07:36:38;9.63;;;6.13;;
64832;SDS011;51290;45.060;38.948;2023-07-13T07:39:04;9.95;;;6.10;;
64832;SDS011;51290;45.060;38.948;2023-07-13T07:41:30;9.30;;;5.75;;
64832;SDS011;51290;45.060;38.948;2023-07-13T07:43:56;7.25;;;5.57;;
64832;SDS011;51290;45.060;38.948;2023-07-13T07:46:22;8.90;;;4.95;;
64832;SDS011;51290;45.060;38.948;2023-07-13T07:48:48;8.45;;;5.50;;
64832;SDS011;51290;45.060;38.948;2023-07-13T07:51:14;8.68;;;5.05;;
64832;SDS011;51290;45.060;38.948;2023-07-13T07:53:41;5.57;;;4.18;;
64832;SDS011;51290;45.060;38.948;2023-07-13T07:56:07;7.40;;;5.38;;
64832;SDS011;51290;45.060;38.948;2023-07-13T07:58:35;6.95;;;5.07;;
64832;SDS011;51290;45.060;38.948;2023-07-13T08:01:02;9.18;;;5.05;;
64832;SDS011;51290;45.060;38.948;2023-07-13T08:03:30;7.03;;;5.45;;
64832;SDS011;51290;45.060;38.948;2023-07-13T08:05:56;6.75;;;4.82;;
64832;SDS011;51290;45.060;38.948;2023-07-13T08:08:22;9.07;;;5.18;;
64832;SDS011;51290;45.060;38.948;2023-07-13T08:10:48;5.68;;;4.82;;
64832;SDS011;51290;45.060;38.948;2023-07-13T08:13:14;6.95;;;5.13;;
64832;SDS011;51290;45.060;38.948;2023-07-13T08:15:40;6.13;;;4.40;;
64832;SDS011;51290;45.060;38.948;2023-07-13T08:18:06;5.25;;;4.30;;
64832;SDS011;51290;45.060;38.948;2023-07-13T08:20:38;6.65;;;4.47;;
64832;SDS011;51290;45.060;38.948;2023-07-13T08:23:05;6.95;;;4.68;;
64832;SDS011;51290;45.060;38.948;2023-07-13T08:25:32;7.57;;;4.70;;
64832;SDS011;51290;45.060;38.948;2023-07-13T08:27:58;8.13;;;4.93;;
64832;SDS011;51290;45.060;38.948;2023-07-13T08:30:24;8.45;;;4.72;;
64832;SDS011;51290;45.060;38.948;2023-07-13T08:32:50;6.15;;;4.30;;
64832;SDS011;51290;45.060;38.948;2023-07-13T08:35:16;7.07;;;4.70;;
64832;SDS011;51290;45.060;38.948;2023-07-13T08:37:43;6.15;;;4.78;;
64832;SDS011;51290;45.060;38.948;2023-07-13T08:40:10;6.45;;;4.68;;
64832;SDS011;51290;45.060;38.948;2023-07-13T08:45:23;7.45;;;5.40;;
64832;SDS011;51290;45.060;38.948;2023-07-13T08:50:39;6.95;;;4.93;;
64832;SDS011;51290;45.060;38.948;2023-07-13T08:53:14;6.50;;;5.15;;
64832;SDS011;51290;45.060;38.948;2023-07-13T08:55:42;11.93;;;5.65;;
64832;SDS011;51290;45.060;38.948;2023-07-13T08:58:11;8.02;;;5.10;;
64832;SDS011;51290;45.060;38.948;2023-07-13T09:03:23;11.10;;;5.05;;
64832;SDS011;51290;45.060;38.948;2023-07-13T09:05:57;7.35;;;4.90;;
64832;SDS011;51290;45.060;38.948;2023-07-13T09:11:49;6.32;;;4.38;;
64832;SDS011;51290;45.060;38.948;2023-07-13T09:13:54;8.73;;;5.15;;
64832;SDS011;51290;45.060;38.948;2023-07-13T09:16:33;8.10;;;4.50;;
64832;SDS011;51290;45.060;38.948;2023-07-13T09:19:02;5.65;;;4.47;;
64832;SDS011;51290;45.060;38.948;2023-07-13T09:21:32;9.43;;;4.75;;
64832;SDS011;51290;45.060;38.948;2023-07-13T09:24:22;7.80;;;4.72;;
64832;SDS011;51290;45.060;38.948;2023-07-13T09:27:20;5.70;;;4.28;;
64832;SDS011;51290;45.060;38.948;2023-07-13T09:30:07;5.88;;;4.55;;
64832;SDS011;51290;45.060;38.948;2023-07-13T09:32:40;6.03;;;4.55;;
64832;SDS011;51290;45.060;38.948;2023-07-13T09:35:16;6.03;;;4.45;;
64832;SDS011;51290;45.060;38.948;2023-07-13T09:37:45;7.05;;;4.68;;
64832;SDS011;51290;45.060;38.948;2023-07-13T09:40:15;7.15;;;5.10;;
64832;SDS011;51290;45.060;38.948;2023-07-13T09:42:52;6.38;;;4.32;;
64832;SDS011;51290;45.060;38.948;2023-07-13T09:45:27;5.75;;;4.03;;
64832;SDS011;51290;45.060;38.948;2023-07-13T09:48:14;8.85;;;5.13;;
64832;SDS011;51290;45.060;38.948;2023-07-13T09:50:42;9.13;;;4.97;;
64832;SDS011;51290;45.060;38.948;2023-07-13T09:53:17;10.05;;;4.93;;
64832;SDS011;51290;45.060;38.948;2023-07-13T09:55:46;5.88;;;4.45;;
64832;SDS011;51290;45.060;38.948;2023-07-13T09:58:14;5.50;;;4.10;;
64832;SDS011;51290;45.060;38.948;2023-07-13T10:00:54;7.07;;;4.35;;
64832;SDS011;51290;45.060;38.948;2023-07-13T10:03:25;11.57;;;5.10;;
64832;SDS011;51290;45.060;38.948;2023-07-13T10:06:18;9.02;;;5.38;;
64832;SDS011;51290;45.060;38.948;2023-07-13T10:08:47;4.35;;;3.88;;
64832;SDS011;51290;45.060;38.948;2023-07-13T10:13:43;7.07;;;4.40;;
64832;SDS011;51290;45.060;38.948;2023-07-13T10:16:11;6.00;;;4.20;;
64832;SDS011;51290;45.060;38.948;2023-07-13T10:18:39;6.40;;;4.50;;
64832;SDS011;51290;45.060;38.948;2023-07-13T10:21:15;9.80;;;4.68;;
64832;SDS011;51290;45.060;38.948;2023-07-13T10:23:45;6.65;;;4.35;;
64832;SDS011;51290;45.060;38.948;2023-07-13T10:26:17;6.07;;;4.40;;
64832;SDS011;51290;45.060;38.948;2023-07-13T10:28:49;6.63;;;4.78;;
64832;SDS011;51290;45.060;38.948;2023-07-13T10:31:20;8.07;;;5.28;;
64832;SDS011;51290;45.060;38.948;2023-07-13T10:33:47;8.40;;;4.93;;
64832;SDS011;51290;45.060;38.948;2023-07-13T10:38:50;7.43;;;4.07;;
64832;SDS011;51290;45.060;38.948;2023-07-13T10:41:19;5.57;;;4.40;;
64832;SDS011;51290;45.060;38.948;2023-07-13T10:43:52;7.40;;;4.38;;
64832;SDS011;51290;45.060;38.948;2023-07-13T10:46:22;6.78;;;4.30;;
64832;SDS011;51290;45.060;38.948;2023-07-13T10:48:54;5.60;;;4.00;;
64832;SDS011;51290;45.060;38.948;2023-07-13T10:51:24;12.68;;;4.88;;
64832;SDS011;51290;45.060;38.948;2023-07-13T10:54:33;9.40;;;4.68;;
64832;SDS011;51290;45.060;38.948;2023-07-13T10:56:42;6.82;;;4.45;;
64832;SDS011;51290;45.060;38.948;2023-07-13T10:59:10;5.38;;;4.60;;
64832;SDS011;51290;45.060;38.948;2023-07-13T11:01:46;8.13;;;4.55;;
64832;SDS011;51290;45.060;38.948;2023-07-13T11:04:19;6.15;;;4.90;;
64832;SDS011;51290;45.060;38.948;2023-07-13T11:07:31;7.45;;;4.75;;
64832;SDS011;51290;45.060;38.948;2023-07-13T11:09:38;6.78;;;4.60;;
64832;SDS011;51290;45.060;38.948;2023-07-13T11:12:10;9.25;;;5.15;;
64832;SDS011;51290;45.060;38.948;2023-07-13T11:20:08;5.97;;;4.70;;
64832;SDS011;51290;45.060;38.948;2023-07-13T11:25:41;8.90;;;5.25;;
64832;SDS011;51290;45.060;38.948;2023-07-13T11:30:39;8.38;;;5.13;;
64832;SDS011;51290;45.060;38.948;2023-07-13T11:33:16;7.03;;;5.00;;
64832;SDS011;51290;45.060;38.948;2023-07-13T11:35:51;7.93;;;4.72;;
64832;SDS011;51290;45.060;38.948;2023-07-13T11:38:37;6.70;;;4.57;;
64832;SDS011;51290;45.060;38.948;2023-07-13T11:41:06;7.25;;;4.60;;
64832;SDS011;51290;45.060;38.948;2023-07-13T11:43:41;8.20;;;4.80;;
64832;SDS011;51290;45.060;38.948;2023-07-13T11:46:20;8.75;;;4.32;;
64832;SDS011;51290;45.060;38.948;2023-07-13T11:48:49;8.55;;;4.78;;
64832;SDS011;51290;45.060;38.948;2023-07-13T11:51:26;6.95;;;4.82;;
64832;SDS011;51290;45.060;38.948;2023-07-13T11:53:57;7.22;;;4.68;;
64832;SDS011;51290;45.060;38.948;2023-07-13T11:56:29;5.78;;;4.70;;
64832;SDS011;51290;45.060;38.948;2023-07-13T11:58:59;10.55;;;4.72;;
64832;SDS011;51290;45.060;38.948;2023-07-13T12:04:01;5.40;;;4.20;;
64832;SDS011;51290;45.060;38.948;2023-07-13T12:06:30;7.05;;;5.00;;
64832;SDS011;51290;45.060;38.948;2023-07-13T12:08:58;6.65;;;4.72;;
64832;SDS011;51290;45.060;38.948;2023-07-13T12:11:26;9.07;;;4.97;;
64832;SDS011;51290;45.060;38.948;2023-07-13T12:13:52;6.85;;;4.55;;
64832;SDS011;51290;45.060;38.948;2023-07-13T12:16:22;6.80;;;4.95;;
64832;SDS011;51290;45.060;38.948;2023-07-13T12:19:01;7.28;;;4.70;;
64832;SDS011;51290;45.060;38.948;2023-07-13T12:21:30;7.63;;;5.13;;
64832;SDS011;51290;45.060;38.948;2023-07-13T12:23:58;7.15;;;4.22;;
64832;SDS011;51290;45.060;38.948;2023-07-13T12:26:24;7.20;;;4.80;;
64832;SDS011;51290;45.060;38.948;2023-07-13T12:28:52;6.35;;;4.50;;
64832;SDS011;51290;45.060;38.948;2023-07-13T12:34:07;9.40;;;5.10;;
64832;SDS011;51290;45.060;38.948;2023-07-13T12:36:46;7.28;;;4.53;;
64832;SDS011;51290;45.060;38.948;2023-07-13T12:41:43;6.63;;;4.55;;
64832;SDS011;51290;45.060;38.948;2023-07-13T12:44:14;9.60;;;5.10;;
64832;SDS011;51290;45.060;38.948;2023-07-13T12:46:58;10.98;;;5.32;;
64832;SDS011;51290;45.060;38.948;2023-07-13T12:49:31;7.22;;;4.82;;
64832;SDS011;51290;45.060;38.948;2023-07-13T12:52:03;11.63;;;5.70;;
64832;SDS011;51290;45.060;38.948;2023-07-13T12:54:39;6.70;;;4.82;;
64832;SDS011;51290;45.060;38.948;2023-07-13T12:57:08;9.07;;;5.70;;
64832;SDS011;51290;45.060;38.948;2023-07-13T12:59:41;9.82;;;5.32;;
64832;SDS011;51290;45.060;38.948;2023-07-13T13:02:21;6.82;;;5.05;;
64832;SDS011;51290;45.060;38.948;2023-07-13T13:04:57;7.88;;;5.13;;
64832;SDS011;51290;45.060;38.948;2023-07-13T13:07:24;7.45;;;4.90;;
64832;SDS011;51290;45.060;38.948;2023-07-13T13:09:51;10.35;;;5.20;;
64832;SDS011;51290;45.060;38.948;2023-07-13T13:12:19;10.00;;;4.82;;
64832;SDS011;51290;45.060;38.948;2023-07-13T13:14:45;9.52;;;5.25;;
64832;SDS011;51290;45.060;38.948;2023-07-13T13:17:30;7.88;;;4.93;;
64832;SDS011;51290;45.060;38.948;2023-07-13T13:19:56;7.05;;;5.05;;
64832;SDS011;51290;45.060;38.948;2023-07-13T13:22:23;6.80;;;5.10;;
64832;SDS011;51290;45.060;38.948;2023-07-13T13:24:49;16.58;;;5.22;;
64832;SDS011;51290;45.060;38.948;2023-07-13T13:27:16;8.85;;;4.65;;
64832;SDS011;51290;45.060;38.948;2023-07-13T13:29:45;12.25;;;4.93;;
64832;SDS011;51290;45.060;38.948;2023-07-13T13:32:12;17.70;;;5.75;;
64832;SDS011;51290;45.060;38.948;2023-07-13T13:34:39;9.15;;;5.20;;
64832;SDS011;51290;45.060;38.948;2023-07-13T13:37:39;7.22;;;5.40;;
64832;SDS011;51290;45.060;38.948;2023-07-13T13:39:58;6.63;;;4.38;;
64832;SDS011;51290;45.060;38.948;2023-07-13T13:42:25;7.15;;;4.90;;
64832;SDS011;51290;45.060;38.948;2023-07-13T13:44:54;8.02;;;5.20;;
64832;SDS011;51290;45.060;38.948;2023-07-13T13:47:30;14.55;;;5.63;;
64832;SDS011;51290;45.060;38.948;2023-07-13T13:50:00;8.07;;;5.28;;
64832;SDS011;51290;45.060;38.948;2023-07-13T13:52:26;11.32;;;4.97;;
64832;SDS011;51290;45.060;38.948;2023-07-13T13:54:52;9.43;;;5.75;;
64832;SDS011;51290;45.060;38.948;2023-07-13T13:57:22;15.07;;;6.07;;
64832;SDS011;51290;45.060;38.948;2023-07-13T13:59:50;11.65;;;5.82;;
64832;SDS011;51290;45.060;38.948;2023-07-13T14:02:21;10.45;;;5.40;;
64832;SDS011;51290;45.060;38.948;2023-07-13T14:04:54;13.77;;;5.50;;
64832;SDS011;51290;45.060;38.948;2023-07-13T14:07:22;10.15;;;5.35;;
64832;SDS011;51290;45.060;38.948;2023-07-13T14:09:49;10.23;;;4.97;;
64832;SDS011;51290;45.060;38.948;2023-07-13T14:12:15;12.55;;;5.47;;
64832;SDS011;51290;45.060;38.948;2023-07-13T14:14:41;6.93;;;5.18;;
64832;SDS011;51290;45.060;38.948;2023-07-13T14:17:20;8.60;;;5.15;;
64832;SDS011;51290;45.060;38.948;2023-07-13T14:19:49;9.85;;;5.20;;
64832;SDS011;51290;45.060;38.948;2023-07-13T14:22:17;8.68;;;5.50;;
64832;SDS011;51290;45.060;38.948;2023-07-13T14:24:44;7.72;;;5.57;;
64832;SDS011;51290;45.060;38.948;2023-07-13T14:27:11;8.48;;;5.20;;
64832;SDS011;51290;45.060;38.948;2023-07-13T14:29:38;7.60;;;5.53;;
64832;SDS011;51290;45.060;38.948;2023-07-13T14:32:04;7.25;;;5.15;;
64832;SDS011;51290;45.060;38.948;2023-07-13T14:34:31;9.60;;;5.80;;
64832;SDS011;51290;45.060;38.948;2023-07-13T14:36:57;10.18;;;5.93;;
64832;SDS011;51290;45.060;38.948;2023-07-13T14:39:24;9.18;;;4.90;;
64832;SDS011;51290;45.060;38.948;2023-07-13T14:41:52;8.68;;;4.93;;
64832;SDS011;51290;45.060;38.948;2023-07-13T14:44:29;10.70;;;4.88;;
64832;SDS011;51290;45.060;38.948;2023-07-13T14:46:57;6.40;;;4.95;;
64832;SDS011;51290;45.060;38.948;2023-07-13T14:52:02;9.25;;;6.03;;
64832;SDS011;51290;45.060;38.948;2023-07-13T14:54:36;8.23;;;5.40;;
64832;SDS011;51290;45.060;38.948;2023-07-13T14:57:09;6.18;;;4.75;;
64832;SDS011;51290;45.060;38.948;2023-07-13T14:59:37;7.28;;;5.00;;
64832;SDS011;51290;45.060;38.948;2023-07-13T15:02:08;10.90;;;5.75;;
64832;SDS011;51290;45.060;38.948;2023-07-13T15:07:04;15.55;;;5.50;;
64832;SDS011;51290;45.060;38.948;2023-07-13T15:09:30;8.32;;;5.13;;
64832;SDS011;51290;45.060;38.948;2023-07-13T15:11:57;12.20;;;5.78;;
64832;SDS011;51290;45.060;38.948;2023-07-13T15:14:23;9.50;;;5.22;;
64832;SDS011;51290;45.060;38.948;2023-07-13T15:16:51;8.57;;;5.85;;
64832;SDS011;51290;45.060;38.948;2023-07-13T15:19:19;13.77;;;5.22;;
64832;SDS011;51290;45.060;38.948;2023-07-13T15:21:46;11.38;;;5.38;;
64832;SDS011;51290;45.060;38.948;2023-07-13T15:24:13;10.07;;;5.55;;